sensor_id;sensor_type;location;lat;lon;timestamp;pressure;altitude;pressure_sealevel;temperature;humidity
73600;BME280;61877;48.246;9.220;2022-12-16T00:01:46;92635.16;;;-1.12;91.60
73600;BME280;61877;48.246;9.220;2022-12-16T00:04:11;92634.03;;;-1.19;91.79
73600;BME280;61877;48.246;9.220;2022-12-16T00:06:36;92629.06;;;-1.21;92.24
73600;BME280;61877;48.246;9.220;2022-12-16T00:09:02;92630.75;;;-1.25;91.93
73600;BME280;61877;48.246;9.220;2022-12-16T00:11:27;92627.03;;;-1.24;91.56
73600;BME280;61877;48.246;9.220;2022-12-16T00:13:54;92636.63;;;-1.28;91.14
73600;BME280;61877;48.246;9.220;2022-12-16T00:16:20;92637.22;;;-1.31;90.89
73600;BME280;61877;48.246;9.220;2022-12-16T00:18:46;92632.84;;;-1.36;91.08
73600;BME280;61877;48.246;9.220;2022-12-16T00:21:12;92635.94;;;-1.34;92.30
73600;BME280;61877;48.246;9.220;2022-12-16T00:23:38;92631.97;;;-1.31;91.19
73600;BME280;61877;48.246;9.220;2022-12-16T00:26:04;92640.13;;;-1.33;91.45
73600;BME280;61877;48.246;9.220;2022-12-16T00:28:30;92640.13;;;-1.33;90.41
73600;BME280;61877;48.246;9.220;2022-12-16T00:30:56;92638.28;;;-1.32;90.02
73600;BME280;61877;48.246;9.220;2022-12-16T00:33:24;92639.19;;;-1.37;90.87
73600;BME280;61877;48.246;9.220;2022-12-16T00:35:50;92641.31;;;-1.39;90.70
73600;BME280;61877;48.246;9.220;2022-12-16T00:38:16;92631.91;;;-1.40;91.52
73600;BME280;61877;48.246;9.220;2022-12-16T00:40:42;92618.38;;;-1.47;90.81
73600;BME280;61877;48.246;9.220;2022-12-16T00:43:07;92620.53;;;-1.49;91.19
73600;BME280;61877;48.246;9.220;2022-12-16T00:45:33;92612.63;;;-1.49;91.26
73600;BME280;61877;48.246;9.220;2022-12-16T00:48:00;92616.84;;;-1.48;91.48
73600;BME280;61877;48.246;9.220;2022-12-16T00:50:25;92615.38;;;-1.54;91.70
73600;BME280;61877;48.246;9.220;2022-12-16T00:52:51;92620.66;;;-1.54;90.91
73600;BME280;61877;48.246;9.220;2022-12-16T00:55:17;92624.84;;;-1.53;91.34
73600;BME280;61877;48.246;9.220;2022-12-16T00:57:43;92628.16;;;-1.61;90.28
73600;BME280;61877;48.246;9.220;2022-12-16T01:00:10;92637.81;;;-1.56;91.06
73600;BME280;61877;48.246;9.220;2022-12-16T01:02:36;92644.13;;;-1.57;91.28
73600;BME280;61877;48.246;9.220;2022-12-16T01:05:04;92637.31;;;-1.58;91.06
73600;BME280;61877;48.246;9.220;2022-12-16T01:07:29;92643.81;;;-1.56;90.90
73600;BME280;61877;48.246;9.220;2022-12-16T01:09:54;92644.78;;;-1.52;91.03
73600;BME280;61877;48.246;9.220;2022-12-16T01:12:20;92658.53;;;-1.55;90.12
73600;BME280;61877;48.246;9.220;2022-12-16T01:14:45;92663.31;;;-1.57;90.65
73600;BME280;61877;48.246;9.220;2022-12-16T01:17:11;92662.81;;;-1.59;90.62
73600;BME280;61877;48.246;9.220;2022-12-16T01:19:36;92660.50;;;-1.60;91.14
73600;BME280;61877;48.246;9.220;2022-12-16T01:22:03;92669.28;;;-1.65;90.63
73600;BME280;61877;48.246;9.220;2022-12-16T01:24:28;92675.28;;;-1.64;90.99
73600;BME280;61877;48.246;9.220;2022-12-16T01:26:54;92686.31;;;-1.62;91.16
73600;BME280;61877;48.246;9.220;2022-12-16T01:29:19;92691.78;;;-1.72;90.82
73600;BME280;61877;48.246;9.220;2022-12-16T01:31:44;92693.34;;;-1.71;91.66
73600;BME280;61877;48.246;9.220;2022-12-16T01:34:10;92695.97;;;-1.71;91.35
73600;BME280;61877;48.246;9.220;2022-12-16T01:36:35;92696.72;;;-1.71;91.59
73600;BME280;61877;48.246;9.220;2022-12-16T01:39:02;92701.22;;;-1.71;91.15
73600;BME280;61877;48.246;9.220;2022-12-16T01:41:27;92695.88;;;-1.66;90.34
73600;BME280;61877;48.246;9.220;2022-12-16T01:44:11;92709.41;;;-1.73;91.64
73600;BME280;61877;48.246;9.220;2022-12-16T01:46:37;92703.19;;;-1.77;91.19
73600;BME280;61877;48.246;9.220;2022-12-16T01:49:07;92697.53;;;-1.84;91.69
73600;BME280;61877;48.246;9.220;2022-12-16T01:51:35;92709.13;;;-1.85;91.87
73600;BME280;61877;48.246;9.220;2022-12-16T01:54:06;92702.78;;;-1.84;92.16
73600;BME280;61877;48.246;9.220;2022-12-16T01:56:35;92703.59;;;-1.83;91.04
73600;BME280;61877;48.246;9.220;2022-12-16T01:59:04;92704.38;;;-1.83;91.60
73600;BME280;61877;48.246;9.220;2022-12-16T02:01:29;92704.47;;;-1.88;91.99
73600;BME280;61877;48.246;9.220;2022-12-16T02:03:57;92697.09;;;-1.86;92.17
73600;BME280;61877;48.246;9.220;2022-12-16T02:06:22;92701.25;;;-1.85;92.14
73600;BME280;61877;48.246;9.220;2022-12-16T02:08:53;92715.47;;;-1.86;92.10
73600;BME280;61877;48.246;9.220;2022-12-16T02:11:31;92713.91;;;-1.87;91.99
73600;BME280;61877;48.246;9.220;2022-12-16T02:14:11;92702.34;;;-1.86;91.90
73600;BME280;61877;48.246;9.220;2022-12-16T02:16:46;92699.13;;;-1.83;91.62
73600;BME280;61877;48.246;9.220;2022-12-16T02:19:34;92694.47;;;-1.86;91.97
73600;BME280;61877;48.246;9.220;2022-12-16T02:22:15;92691.75;;;-1.94;91.32
73600;BME280;61877;48.246;9.220;2022-12-16T02:25:27;92702.44;;;-1.91;91.13
73600;BME280;61877;48.246;9.220;2022-12-16T02:28:05;92702.91;;;-1.89;91.24
73600;BME280;61877;48.246;9.220;2022-12-16T02:30:46;92702.59;;;-1.87;91.34
73600;BME280;61877;48.246;9.220;2022-12-16T02:33:32;92706.13;;;-1.92;90.88
73600;BME280;61877;48.246;9.220;2022-12-16T02:36:09;92708.25;;;-1.80;89.75
73600;BME280;61877;48.246;9.220;2022-12-16T02:38:40;92709.25;;;-1.90;89.67
73600;BME280;61877;48.246;9.220;2022-12-16T02:41:16;92710.78;;;-1.89;89.78
73600;BME280;61877;48.246;9.220;2022-12-16T02:43:51;92717.81;;;-1.84;89.43
73600;BME280;61877;48.246;9.220;2022-12-16T02:46:22;92719.66;;;-1.85;89.03
73600;BME280;61877;48.246;9.220;2022-12-16T02:48:47;92717.31;;;-1.86;88.83
73600;BME280;61877;48.246;9.220;2022-12-16T02:51:13;92713.81;;;-1.95;90.00
73600;BME280;61877;48.246;9.220;2022-12-16T02:53:41;92713.31;;;-1.97;89.65
73600;BME280;61877;48.246;9.220;2022-12-16T02:56:16;92716.84;;;-2.02;89.12
73600;BME280;61877;48.246;9.220;2022-12-16T02:58:51;92715.41;;;-2.08;89.42
73600;BME280;61877;48.246;9.220;2022-12-16T03:01:24;92729.22;;;-2.02;89.12
73600;BME280;61877;48.246;9.220;2022-12-16T03:03:57;92721.13;;;-2.06;90.00
73600;BME280;61877;48.246;9.220;2022-12-16T03:06:25;92740.38;;;-2.10;90.12
73600;BME280;61877;48.246;9.220;2022-12-16T03:08:56;92740.78;;;-2.03;88.98
73600;BME280;61877;48.246;9.220;2022-12-16T03:11:25;92742.25;;;-2.11;89.39
73600;BME280;61877;48.246;9.220;2022-12-16T03:13:54;92746.13;;;-2.08;89.58
73600;BME280;61877;48.246;9.220;2022-12-16T03:16:25;92746.72;;;-2.11;90.00
73600;BME280;61877;48.246;9.220;2022-12-16T03:18:54;92746.13;;;-2.22;90.47
73600;BME280;61877;48.246;9.220;2022-12-16T03:21:23;92758.19;;;-2.21;90.64
73600;BME280;61877;48.246;9.220;2022-12-16T03:23:52;92755.56;;;-2.21;90.47
73600;BME280;61877;48.246;9.220;2022-12-16T03:26:22;92754.38;;;-2.28;90.75
73600;BME280;61877;48.246;9.220;2022-12-16T03:28:52;92765.09;;;-2.25;91.73
73600;BME280;61877;48.246;9.220;2022-12-16T03:31:29;92764.97;;;-2.33;91.79
73600;BME280;61877;48.246;9.220;2022-12-16T03:34:00;92765.28;;;-2.35;91.60
73600;BME280;61877;48.246;9.220;2022-12-16T03:36:32;92762.75;;;-2.40;92.36
73600;BME280;61877;48.246;9.220;2022-12-16T03:38:59;92776.38;;;-2.38;91.67
73600;BME280;61877;48.246;9.220;2022-12-16T03:41:27;92779.56;;;-2.41;91.38
73600;BME280;61877;48.246;9.220;2022-12-16T03:43:54;92780.63;;;-2.42;91.71
73600;BME280;61877;48.246;9.220;2022-12-16T03:46:20;92776.38;;;-2.38;91.54
73600;BME280;61877;48.246;9.220;2022-12-16T03:48:49;92780.53;;;-2.37;90.95
73600;BME280;61877;48.246;9.220;2022-12-16T03:51:15;92770.69;;;-2.45;91.62
73600;BME280;61877;48.246;9.220;2022-12-16T03:53:40;92775.97;;;-2.45;91.89
73600;BME280;61877;48.246;9.220;2022-12-16T03:56:06;92781.13;;;-2.40;91.19
73600;BME280;61877;48.246;9.220;2022-12-16T03:58:32;92786.38;;;-2.40;91.16
73600;BME280;61877;48.246;9.220;2022-12-16T04:00:57;92796.38;;;-2.42;91.37
73600;BME280;61877;48.246;9.220;2022-12-16T04:03:23;92791.13;;;-2.42;92.06
73600;BME280;61877;48.246;9.220;2022-12-16T04:05:50;92800.66;;;-2.46;91.81
73600;BME280;61877;48.246;9.220;2022-12-16T04:08:15;92801.91;;;-2.43;91.60
73600;BME280;61877;48.246;9.220;2022-12-16T04:10:41;92807.66;;;-2.41;91.47
73600;BME280;61877;48.246;9.220;2022-12-16T04:13:08;92796.59;;;-2.38;91.00
73600;BME280;61877;48.246;9.220;2022-12-16T04:15:33;92812.13;;;-2.42;91.36
73600;BME280;61877;48.246;9.220;2022-12-16T04:17:59;92803.00;;;-2.44;91.15
73600;BME280;61877;48.246;9.220;2022-12-16T04:20:29;92807.38;;;-2.40;90.61
73600;BME280;61877;48.246;9.220;2022-12-16T04:22:57;92812.91;;;-2.41;90.79
73600;BME280;61877;48.246;9.220;2022-12-16T04:25:25;92818.75;;;-2.44;90.81
73600;BME280;61877;48.246;9.220;2022-12-16T04:27:52;92816.03;;;-2.39;91.29
73600;BME280;61877;48.246;9.220;2022-12-16T04:30:19;92816.34;;;-2.41;90.09
73600;BME280;61877;48.246;9.220;2022-12-16T04:32:44;92824.72;;;-2.39;91.00
73600;BME280;61877;48.246;9.220;2022-12-16T04:35:10;92834.91;;;-2.37;90.67
73600;BME280;61877;48.246;9.220;2022-12-16T04:37:35;92839.97;;;-2.41;90.21
73600;BME280;61877;48.246;9.220;2022-12-16T04:40:03;92849.09;;;-2.38;89.95
73600;BME280;61877;48.246;9.220;2022-12-16T04:42:29;92846.19;;;-2.37;90.47
73600;BME280;61877;48.246;9.220;2022-12-16T04:44:54;92845.13;;;-2.36;90.95
73600;BME280;61877;48.246;9.220;2022-12-16T04:47:20;92857.19;;;-2.35;90.87
73600;BME280;61877;48.246;9.220;2022-12-16T04:49:45;92847.25;;;-2.38;90.35
73600;BME280;61877;48.246;9.220;2022-12-16T04:52:11;92854.06;;;-2.37;90.54
73600;BME280;61877;48.246;9.220;2022-12-16T04:54:37;92851.13;;;-2.35;90.65
73600;BME280;61877;48.246;9.220;2022-12-16T04:57:03;92854.63;;;-2.40;90.38
73600;BME280;61877;48.246;9.220;2022-12-16T04:59:29;92849.47;;;-2.45;90.94
73600;BME280;61877;48.246;9.220;2022-12-16T05:01:54;92850.66;;;-2.37;90.64
73600;BME280;61877;48.246;9.220;2022-12-16T05:04:20;92852.50;;;-2.38;90.77
73600;BME280;61877;48.246;9.220;2022-12-16T05:06:45;92852.72;;;-2.34;90.85
73600;BME280;61877;48.246;9.220;2022-12-16T05:09:10;92856.13;;;-2.34;90.60
73600;BME280;61877;48.246;9.220;2022-12-16T05:11:36;92864.09;;;-2.39;90.54
73600;BME280;61877;48.246;9.220;2022-12-16T05:14:03;92866.06;;;-2.31;90.28
73600;BME280;61877;48.246;9.220;2022-12-16T05:16:28;92873.66;;;-2.29;89.81
73600;BME280;61877;48.246;9.220;2022-12-16T05:18:54;92881.72;;;-2.26;89.37
73600;BME280;61877;48.246;9.220;2022-12-16T05:21:19;92873.66;;;-2.29;89.04
73600;BME280;61877;48.246;9.220;2022-12-16T05:23:45;92879.84;;;-2.39;89.50
73600;BME280;61877;48.246;9.220;2022-12-16T05:26:10;92878.69;;;-2.33;90.25
73600;BME280;61877;48.246;9.220;2022-12-16T05:28:35;92874.31;;;-2.37;90.08
73600;BME280;61877;48.246;9.220;2022-12-16T05:31:02;92879.28;;;-2.36;89.95
73600;BME280;61877;48.246;9.220;2022-12-16T05:33:28;92887.66;;;-2.34;89.67
73600;BME280;61877;48.246;9.220;2022-12-16T05:35:53;92886.66;;;-2.38;90.02
73600;BME280;61877;48.246;9.220;2022-12-16T05:38:19;92891.41;;;-2.40;89.73
73600;BME280;61877;48.246;9.220;2022-12-16T05:40:44;92900.84;;;-2.39;88.88
73600;BME280;61877;48.246;9.220;2022-12-16T05:43:10;92908.59;;;-2.47;88.70
73600;BME280;61877;48.246;9.220;2022-12-16T05:45:35;92917.53;;;-2.48;88.55
73600;BME280;61877;48.246;9.220;2022-12-16T05:48:02;92913.63;;;-2.51;89.22
73600;BME280;61877;48.246;9.220;2022-12-16T05:50:27;92917.53;;;-2.48;87.91
73600;BME280;61877;48.246;9.220;2022-12-16T05:52:54;92920.66;;;-2.46;88.23
73600;BME280;61877;48.246;9.220;2022-12-16T05:55:20;92920.44;;;-2.50;88.30
73600;BME280;61877;48.246;9.220;2022-12-16T05:57:48;92927.72;;;-2.47;88.11
73600;BME280;61877;48.246;9.220;2022-12-16T06:00:14;92929.88;;;-2.49;88.58
73600;BME280;61877;48.246;9.220;2022-12-16T06:02:39;92929.16;;;-2.54;89.13
73600;BME280;61877;48.246;9.220;2022-12-16T06:05:06;92941.03;;;-2.57;89.36
73600;BME280;61877;48.246;9.220;2022-12-16T06:07:32;92935.78;;;-2.57;89.29
73600;BME280;61877;48.246;9.220;2022-12-16T06:09:57;92939.38;;;-2.53;89.42
73600;BME280;61877;48.246;9.220;2022-12-16T06:12:22;92946.69;;;-2.50;89.53
73600;BME280;61877;48.246;9.220;2022-12-16T06:14:48;92945.13;;;-2.51;89.40
73600;BME280;61877;48.246;9.220;2022-12-16T06:17:14;92947.25;;;-2.53;89.45
73600;BME280;61877;48.246;9.220;2022-12-16T06:19:39;92954.06;;;-2.52;89.56
73600;BME280;61877;48.246;9.220;2022-12-16T06:22:06;92959.81;;;-2.50;90.00
73600;BME280;61877;48.246;9.220;2022-12-16T06:24:31;92961.41;;;-2.49;89.99
73600;BME280;61877;48.246;9.220;2022-12-16T06:26:57;92962.03;;;-2.57;88.56
73600;BME280;61877;48.246;9.220;2022-12-16T06:29:22;92962.22;;;-2.53;89.28
73600;BME280;61877;48.246;9.220;2022-12-16T06:31:47;92968.34;;;-2.58;89.73
73600;BME280;61877;48.246;9.220;2022-12-16T06:34:13;92967.28;;;-2.57;89.70
73600;BME280;61877;48.246;9.220;2022-12-16T06:36:39;92967.00;;;-2.55;89.99
73600;BME280;61877;48.246;9.220;2022-12-16T06:39:05;92974.44;;;-2.63;89.42
73600;BME280;61877;48.246;9.220;2022-12-16T06:41:31;92979.41;;;-2.61;89.93
73600;BME280;61877;48.246;9.220;2022-12-16T06:43:56;92981.53;;;-2.63;89.95
73600;BME280;61877;48.246;9.220;2022-12-16T06:46:22;92989.41;;;-2.63;90.12
73600;BME280;61877;48.246;9.220;2022-12-16T06:48:47;92996.78;;;-2.65;89.59
73600;BME280;61877;48.246;9.220;2022-12-16T06:51:13;92999.91;;;-2.63;89.17
73600;BME280;61877;48.246;9.220;2022-12-16T06:53:38;93008.63;;;-2.68;89.90
73600;BME280;61877;48.246;9.220;2022-12-16T06:56:05;93014.66;;;-2.67;89.80
73600;BME280;61877;48.246;9.220;2022-12-16T06:58:31;93017.34;;;-2.72;89.69
73600;BME280;61877;48.246;9.220;2022-12-16T07:00:56;93020.56;;;-2.80;90.05
73600;BME280;61877;48.246;9.220;2022-12-16T07:03:22;93017.75;;;-2.84;90.13
73600;BME280;61877;48.246;9.220;2022-12-16T07:05:51;93031.31;;;-2.77;89.75
73600;BME280;61877;48.246;9.220;2022-12-16T07:08:16;93036.19;;;-2.70;90.02
73600;BME280;61877;48.246;9.220;2022-12-16T07:10:42;93029.75;;;-2.78;90.17
73600;BME280;61877;48.246;9.220;2022-12-16T07:13:09;93040.19;;;-2.73;90.50
73600;BME280;61877;48.246;9.220;2022-12-16T07:15:34;93047.28;;;-2.73;90.68
73600;BME280;61877;48.246;9.220;2022-12-16T07:17:59;93051.47;;;-2.72;90.09
73600;BME280;61877;48.246;9.220;2022-12-16T07:20:25;93056.66;;;-2.67;89.55
73600;BME280;61877;48.246;9.220;2022-12-16T07:22:50;93062.91;;;-2.63;89.34
73600;BME280;61877;48.246;9.220;2022-12-16T07:25:16;93070.13;;;-2.55;89.04
73600;BME280;61877;48.246;9.220;2022-12-16T07:27:44;93065.41;;;-2.53;88.55
73600;BME280;61877;48.246;9.220;2022-12-16T07:30:11;93079.03;;;-2.51;89.07
73600;BME280;61877;48.246;9.220;2022-12-16T07:32:37;93078.03;;;-2.55;87.87
73600;BME280;61877;48.246;9.220;2022-12-16T07:35:03;93088.03;;;-2.57;87.99
73600;BME280;61877;48.246;9.220;2022-12-16T07:37:28;93089.81;;;-2.52;88.17
73600;BME280;61877;48.246;9.220;2022-12-16T07:39:54;93089.25;;;-2.49;88.24
73600;BME280;61877;48.246;9.220;2022-12-16T07:42:19;93098.56;;;-2.38;88.25
73600;BME280;61877;48.246;9.220;2022-12-16T07:44:44;93098.41;;;-2.47;87.70
73600;BME280;61877;48.246;9.220;2022-12-16T07:47:11;93101.41;;;-2.35;87.94
73600;BME280;61877;48.246;9.220;2022-12-16T07:49:37;93109.22;;;-2.30;86.94
73600;BME280;61877;48.246;9.220;2022-12-16T07:52:02;93113.63;;;-2.25;86.70
73600;BME280;61877;48.246;9.220;2022-12-16T07:54:28;93107.19;;;-2.14;87.39
73600;BME280;61877;48.246;9.220;2022-12-16T07:56:53;93119.47;;;-2.10;86.89
73600;BME280;61877;48.246;9.220;2022-12-16T07:59:19;93121.59;;;-2.12;85.77
73600;BME280;61877;48.246;9.220;2022-12-16T08:01:44;93114.50;;;-2.11;85.03
73600;BME280;61877;48.246;9.220;2022-12-16T08:04:11;93118.97;;;-1.93;86.08
73600;BME280;61877;48.246;9.220;2022-12-16T08:06:36;93134.91;;;-1.85;85.00
73600;BME280;61877;48.246;9.220;2022-12-16T08:09:02;93129.56;;;-1.80;84.44
73600;BME280;61877;48.246;9.220;2022-12-16T08:11:27;93136.31;;;-1.74;83.28
73600;BME280;61877;48.246;9.220;2022-12-16T08:13:53;93141.50;;;-1.69;84.02
73600;BME280;61877;48.246;9.220;2022-12-16T08:16:18;93153.09;;;-1.70;83.16
73600;BME280;61877;48.246;9.220;2022-12-16T08:18:43;93154.56;;;-1.64;83.66
73600;BME280;61877;48.246;9.220;2022-12-16T08:21:10;93156.78;;;-1.71;82.78
73600;BME280;61877;48.246;9.220;2022-12-16T08:23:36;93161.28;;;-1.53;83.06
73600;BME280;61877;48.246;9.220;2022-12-16T08:26:01;93159.69;;;-1.54;82.14
73600;BME280;61877;48.246;9.220;2022-12-16T08:28:26;93155.94;;;-1.48;82.94
73600;BME280;61877;48.246;9.220;2022-12-16T08:30:52;93165.81;;;-1.40;83.12
73600;BME280;61877;48.246;9.220;2022-12-16T08:33:17;93169.63;;;-1.51;81.74
73600;BME280;61877;48.246;9.220;2022-12-16T08:35:43;93164.16;;;-1.36;82.07
73600;BME280;61877;48.246;9.220;2022-12-16T08:38:10;93177.72;;;-1.28;81.54
73600;BME280;61877;48.246;9.220;2022-12-16T08:40:35;93176.88;;;-1.43;81.50
73600;BME280;61877;48.246;9.220;2022-12-16T08:43:00;93180.78;;;-1.40;81.48
73600;BME280;61877;48.246;9.220;2022-12-16T08:45:26;93184.69;;;-1.38;81.12
73600;BME280;61877;48.246;9.220;2022-12-16T08:47:51;93185.91;;;-1.49;80.66
73600;BME280;61877;48.246;9.220;2022-12-16T08:50:17;93186.19;;;-1.50;80.41
73600;BME280;61877;48.246;9.220;2022-12-16T08:52:43;93191.75;;;-1.52;81.99
73600;BME280;61877;48.246;9.220;2022-12-16T08:55:10;93190.66;;;-1.51;81.68
73600;BME280;61877;48.246;9.220;2022-12-16T08:57:35;93193.38;;;-1.37;79.89
73600;BME280;61877;48.246;9.220;2022-12-16T09:00:02;93191.97;;;-1.29;80.08
73600;BME280;61877;48.246;9.220;2022-12-16T09:02:28;93198.19;;;-1.44;79.72
73600;BME280;61877;48.246;9.220;2022-12-16T09:04:54;93213.28;;;-1.50;79.78
73600;BME280;61877;48.246;9.220;2022-12-16T09:14:50;93217.97;;;-1.47;79.84
73600;BME280;61877;48.246;9.220;2022-12-16T09:17:16;93225.38;;;-1.11;81.02
73600;BME280;61877;48.246;9.220;2022-12-16T09:19:41;93220.50;;;-1.04;77.75
73600;BME280;61877;48.246;9.220;2022-12-16T09:22:07;93227.41;;;-1.08;78.44
73600;BME280;61877;48.246;9.220;2022-12-16T09:24:33;93225.00;;;-1.05;79.15
73600;BME280;61877;48.246;9.220;2022-12-16T09:26:58;93228.41;;;-0.72;78.60
73600;BME280;61877;48.246;9.220;2022-12-16T09:29:24;93224.47;;;-0.88;76.86
73600;BME280;61877;48.246;9.220;2022-12-16T09:31:51;93235.06;;;-0.61;75.36
73600;BME280;61877;48.246;9.220;2022-12-16T09:34:16;93234.94;;;-0.83;77.43
73600;BME280;61877;48.246;9.220;2022-12-16T09:36:42;93240.28;;;-0.88;74.74
73600;BME280;61877;48.246;9.220;2022-12-16T09:39:08;93247.59;;;-0.85;75.44
73600;BME280;61877;48.246;9.220;2022-12-16T09:41:41;93240.31;;;-0.75;75.17
73600;BME280;61877;48.246;9.220;2022-12-16T09:44:15;93240.00;;;-1.05;77.83
73600;BME280;61877;48.246;9.220;2022-12-16T09:46:49;93251.66;;;-0.93;78.18
73600;BME280;61877;48.246;9.220;2022-12-16T09:49:27;93246.28;;;-0.69;78.52
73600;BME280;61877;48.246;9.220;2022-12-16T09:51:59;93249.38;;;-0.99;76.50
73600;BME280;61877;48.246;9.220;2022-12-16T09:54:28;93250.81;;;-0.88;76.08
73600;BME280;61877;48.246;9.220;2022-12-16T09:57:00;93253.56;;;-0.80;76.14
73600;BME280;61877;48.246;9.220;2022-12-16T09:59:29;93261.09;;;-0.73;75.55
73600;BME280;61877;48.246;9.220;2022-12-16T10:01:56;93266.75;;;-0.34;75.79
73600;BME280;61877;48.246;9.220;2022-12-16T10:04:23;93267.66;;;-0.25;74.47
73600;BME280;61877;48.246;9.220;2022-12-16T10:06:51;93272.56;;;-0.05;74.59
73600;BME280;61877;48.246;9.220;2022-12-16T10:09:25;93273.41;;;-0.23;74.98
73600;BME280;61877;48.246;9.220;2022-12-16T10:11:56;93272.38;;;-0.73;75.05
73600;BME280;61877;48.246;9.220;2022-12-16T10:14:29;93278.50;;;-0.59;76.68
73600;BME280;61877;48.246;9.220;2022-12-16T10:17:00;93286.72;;;-0.79;77.04
73600;BME280;61877;48.246;9.220;2022-12-16T10:19:42;93282.59;;;-0.85;77.91
73600;BME280;61877;48.246;9.220;2022-12-16T10:22:16;93291.41;;;-0.76;77.21
73600;BME280;61877;48.246;9.220;2022-12-16T10:24:53;93276.69;;;-0.95;77.20
73600;BME280;61877;48.246;9.220;2022-12-16T10:27:29;93282.41;;;-1.07;75.89
73600;BME280;61877;48.246;9.220;2022-12-16T10:29:59;93282.03;;;-1.00;76.51
73600;BME280;61877;48.246;9.220;2022-12-16T10:32:29;93283.22;;;-0.74;76.28
73600;BME280;61877;48.246;9.220;2022-12-16T10:34:58;93287.06;;;-0.85;76.01
73600;BME280;61877;48.246;9.220;2022-12-16T10:37:30;93291.69;;;-0.77;78.22
73600;BME280;61877;48.246;9.220;2022-12-16T10:39:58;93292.97;;;-0.43;76.46
73600;BME280;61877;48.246;9.220;2022-12-16T10:42:27;93293.53;;;-0.27;75.97
73600;BME280;61877;48.246;9.220;2022-12-16T10:44:58;93293.78;;;-0.42;73.47
73600;BME280;61877;48.246;9.220;2022-12-16T10:47:26;93285.09;;;-0.61;74.27
73600;BME280;61877;48.246;9.220;2022-12-16T10:49:55;93296.41;;;-0.93;75.13
73600;BME280;61877;48.246;9.220;2022-12-16T10:52:24;93301.31;;;-0.86;74.18
73600;BME280;61877;48.246;9.220;2022-12-16T10:54:56;93298.94;;;-0.88;74.30
73600;BME280;61877;48.246;9.220;2022-12-16T10:57:31;93298.97;;;-1.25;75.07
73600;BME280;61877;48.246;9.220;2022-12-16T11:00:10;93302.31;;;-1.01;77.85
73600;BME280;61877;48.246;9.220;2022-12-16T11:02:37;93306.81;;;-1.01;74.44
73600;BME280;61877;48.246;9.220;2022-12-16T11:05:22;93299.00;;;-0.74;74.65
73600;BME280;61877;48.246;9.220;2022-12-16T11:07:54;93296.56;;;-0.52;72.09
73600;BME280;61877;48.246;9.220;2022-12-16T11:10:29;93298.19;;;-0.56;71.84
73600;BME280;61877;48.246;9.220;2022-12-16T11:13:11;93295.53;;;0.08;70.23
73600;BME280;61877;48.246;9.220;2022-12-16T11:15:39;93295.44;;;0.27;69.22
73600;BME280;61877;48.246;9.220;2022-12-16T11:18:09;93290.84;;;0.46;69.95
73600;BME280;61877;48.246;9.220;2022-12-16T11:20:35;93288.66;;;0.75;67.35
73600;BME280;61877;48.246;9.220;2022-12-16T11:23:13;93294.94;;;0.65;68.55
73600;BME280;61877;48.246;9.220;2022-12-16T11:25:39;93293.97;;;0.61;68.49
73600;BME280;61877;48.246;9.220;2022-12-16T11:28:10;93294.66;;;0.13;69.64
73600;BME280;61877;48.246;9.220;2022-12-16T11:30:36;93299.03;;;-0.10;70.53
73600;BME280;61877;48.246;9.220;2022-12-16T11:33:10;93292.53;;;-0.31;71.24
73600;BME280;61877;48.246;9.220;2022-12-16T11:35:39;93298.59;;;-0.31;73.45
73600;BME280;61877;48.246;9.220;2022-12-16T11:38:15;93306.19;;;-0.29;72.65
73600;BME280;61877;48.246;9.220;2022-12-16T11:40:42;93304.81;;;-0.40;73.22
73600;BME280;61877;48.246;9.220;2022-12-16T11:43:11;93312.72;;;-0.40;73.30
73600;BME280;61877;48.246;9.220;2022-12-16T11:45:37;93310.28;;;-0.23;73.01
73600;BME280;61877;48.246;9.220;2022-12-16T11:48:08;93309.66;;;-0.47;72.99
73600;BME280;61877;48.246;9.220;2022-12-16T11:50:40;93313.25;;;-0.11;74.82
73600;BME280;61877;48.246;9.220;2022-12-16T11:53:22;93327.16;;;-0.56;72.42
73600;BME280;61877;48.246;9.220;2022-12-16T11:55:52;93316.25;;;-0.63;74.27
73600;BME280;61877;48.246;9.220;2022-12-16T11:58:25;93318.44;;;-0.70;73.60
73600;BME280;61877;48.246;9.220;2022-12-16T12:00:57;93322.28;;;-1.18;73.82
73600;BME280;61877;48.246;9.220;2022-12-16T12:03:25;93325.34;;;-1.11;73.94
73600;BME280;61877;48.246;9.220;2022-12-16T12:05:58;93325.06;;;-1.28;74.18
73600;BME280;61877;48.246;9.220;2022-12-16T12:08:33;93323.38;;;-1.19;73.24
73600;BME280;61877;48.246;9.220;2022-12-16T12:11:06;93326.41;;;-1.31;74.82
73600;BME280;61877;48.246;9.220;2022-12-16T12:13:49;93330.06;;;-1.08;73.89
73600;BME280;61877;48.246;9.220;2022-12-16T12:16:22;93328.00;;;-0.93;73.02
73600;BME280;61877;48.246;9.220;2022-12-16T12:18:58;93334.47;;;-0.67;73.86
73600;BME280;61877;48.246;9.220;2022-12-16T12:21:26;93337.03;;;-0.80;72.42
73600;BME280;61877;48.246;9.220;2022-12-16T12:24:02;93343.56;;;-0.59;72.62
73600;BME280;61877;48.246;9.220;2022-12-16T12:26:35;93347.47;;;-0.57;73.03
73600;BME280;61877;48.246;9.220;2022-12-16T12:29:06;93351.41;;;-0.91;71.25
73600;BME280;61877;48.246;9.220;2022-12-16T12:31:40;93348.88;;;-1.20;73.68
73600;BME280;61877;48.246;9.220;2022-12-16T12:34:21;93347.69;;;-0.90;73.44
73600;BME280;61877;48.246;9.220;2022-12-16T12:36:52;93353.59;;;-0.61;74.42
73600;BME280;61877;48.246;9.220;2022-12-16T12:39:25;93340.25;;;-0.51;71.05
73600;BME280;61877;48.246;9.220;2022-12-16T12:42:01;93340.28;;;0.13;70.70
73600;BME280;61877;48.246;9.220;2022-12-16T12:44:41;93350.81;;;0.13;68.48
73600;BME280;61877;48.246;9.220;2022-12-16T12:47:12;93353.31;;;-0.09;69.30
73600;BME280;61877;48.246;9.220;2022-12-16T12:49:41;93355.50;;;0.16;69.00
73600;BME280;61877;48.246;9.220;2022-12-16T12:52:15;93358.25;;;0.38;68.30
73600;BME280;61877;48.246;9.220;2022-12-16T12:54:50;93353.28;;;0.64;67.10
73600;BME280;61877;48.246;9.220;2022-12-16T12:57:19;93363.56;;;0.65;68.11
73600;BME280;61877;48.246;9.220;2022-12-16T12:59:52;93349.94;;;0.18;67.70
73600;BME280;61877;48.246;9.220;2022-12-16T13:02:22;93355.25;;;0.31;69.07
73600;BME280;61877;48.246;9.220;2022-12-16T13:04:49;93366.66;;;0.40;69.61
73600;BME280;61877;48.246;9.220;2022-12-16T13:07:16;93363.66;;;0.33;68.51
73600;BME280;61877;48.246;9.220;2022-12-16T13:09:42;93368.41;;;0.18;69.98
73600;BME280;61877;48.246;9.220;2022-12-16T13:12:22;93367.59;;;0.17;69.93
73600;BME280;61877;48.246;9.220;2022-12-16T13:14:56;93371.44;;;0.25;68.55